sensor_id;sensor_type;location;lat;lon;timestamp;P1;P2;P0
26185;PMS7003;20067;48.764;9.176;2023-05-29T00:01:43;13.00;11.00;6.50
26185;PMS7003;20067;48.764;9.176;2023-05-29T00:04:09;17.25;14.50;7.25
26185;PMS7003;20067;48.764;9.176;2023-05-29T00:06:35;14.25;12.75;9.25
26185;PMS7003;20067;48.764;9.176;2023-05-29T00:09:01;15.50;14.50;7.50
26185;PMS7003;20067;48.764;9.176;2023-05-29T00:11:26;16.75;13.25;8.00
26185;PMS7003;20067;48.764;9.176;2023-05-29T00:13:52;16.00;14.75;8.00
26185;PMS7003;20067;48.764;9.176;2023-05-29T00:16:17;15.75;15.75;7.00
26185;PMS7003;20067;48.764;9.176;2023-05-29T00:18:43;17.00;15.25;7.00
26185;PMS7003;20067;48.764;9.176;2023-05-29T00:21:10;17.00;14.25;7.00
26185;PMS7003;20067;48.764;9.176;2023-05-29T00:23:37;15.25;14.75;7.00
26185;PMS7003;20067;48.764;9.176;2023-05-29T00:26:03;13.75;13.75;7.00
26185;PMS7003;20067;48.764;9.176;2023-05-29T00:28:29;15.50;15.00;7.00
26185;PMS7003;20067;48.764;9.176;2023-05-29T00:30:54;20.00;16.50;7.50
26185;PMS7003;20067;48.764;9.176;2023-05-29T00:33:20;14.50;12.25;7.00
26185;PMS7003;20067;48.764;9.176;2023-05-29T00:35:45;15.25;13.75;7.00
26185;PMS7003;20067;48.764;9.176;2023-05-29T00:38:11;16.50;14.00;8.00
26185;PMS7003;20067;48.764;9.176;2023-05-29T00:40:37;14.50;13.25;6.00
26185;PMS7003;20067;48.764;9.176;2023-05-29T00:43:04;14.00;11.75;7.00
26185;PMS7003;20067;48.764;9.176;2023-05-29T00:45:30;17.50;15.00;7.50
26185;PMS7003;20067;48.764;9.176;2023-05-29T00:47:57;13.50;12.25;7.00
26185;PMS7003;20067;48.764;9.176;2023-05-29T00:50:23;16.25;14.50;9.00
26185;PMS7003;20067;48.764;9.176;2023-05-29T00:52:48;14.25;14.25;8.00
26185;PMS7003;20067;48.764;9.176;2023-05-29T00:55:15;22.50;16.00;9.25
26185;PMS7003;20067;48.764;9.176;2023-05-29T00:57:41;16.75;13.00;7.00
26185;PMS7003;20067;48.764;9.176;2023-05-29T01:00:07;18.25;15.00;9.00
26185;PMS7003;20067;48.764;9.176;2023-05-29T01:02:37;17.00;17.00;9.75
26185;PMS7003;20067;48.764;9.176;2023-05-29T01:05:04;15.50;14.00;8.00
26185;PMS7003;20067;48.764;9.176;2023-05-29T01:07:30;16.00;14.25;7.00
26185;PMS7003;20067;48.764;9.176;2023-05-29T01:09:57;16.50;16.25;10.00
26185;PMS7003;20067;48.764;9.176;2023-05-29T01:12:26;15.00;13.75;9.00
26185;PMS7003;20067;48.764;9.176;2023-05-29T01:29:23;15.00;14.00;7.00
26185;PMS7003;20067;48.764;9.176;2023-05-29T01:31:51;17.25;14.25;9.00
26185;PMS7003;20067;48.764;9.176;2023-05-29T01:34:20;14.50;12.50;7.00
26185;PMS7003;20067;48.764;9.176;2023-05-29T01:36:46;17.00;14.00;7.00
26185;PMS7003;20067;48.764;9.176;2023-05-29T01:39:11;14.75;14.50;8.25
26185;PMS7003;20067;48.764;9.176;2023-05-29T01:41:38;17.00;15.25;7.00
26185;PMS7003;20067;48.764;9.176;2023-05-29T01:44:05;14.25;12.50;6.00
26185;PMS7003;20067;48.764;9.176;2023-05-29T01:46:38;16.50;12.25;6.50
26185;PMS7003;20067;48.764;9.176;2023-05-29T01:49:08;18.00;13.00;7.75
26185;PMS7003;20067;48.764;9.176;2023-05-29T01:51:35;14.50;13.75;7.00
26185;PMS7003;20067;48.764;9.176;2023-05-29T01:54:01;13.00;13.00;9.00
26185;PMS7003;20067;48.764;9.176;2023-05-29T01:56:27;14.25;13.50;6.75
26185;PMS7003;20067;48.764;9.176;2023-05-29T01:58:56;15.75;12.25;6.25
26185;PMS7003;20067;48.764;9.176;2023-05-29T02:01:23;14.50;14.00;8.00
26185;PMS7003;20067;48.764;9.176;2023-05-29T02:03:49;17.75;13.25;7.00
26185;PMS7003;20067;48.764;9.176;2023-05-29T02:06:16;15.50;14.25;7.00
26185;PMS7003;20067;48.764;9.176;2023-05-29T02:08:42;17.75;12.75;7.75
26185;PMS7003;20067;48.764;9.176;2023-05-29T02:11:07;14.25;12.75;8.00
26185;PMS7003;20067;48.764;9.176;2023-05-29T02:13:33;14.25;13.75;9.00
26185;PMS7003;20067;48.764;9.176;2023-05-29T02:15:59;13.25;13.25;8.00
26185;PMS7003;20067;48.764;9.176;2023-05-29T02:18:25;15.00;14.00;8.50
26185;PMS7003;20067;48.764;9.176;2023-05-29T02:20:50;13.50;13.50;8.50
26185;PMS7003;20067;48.764;9.176;2023-05-29T02:23:16;16.50;14.00;9.00
26185;PMS7003;20067;48.764;9.176;2023-05-29T02:25:44;15.50;13.25;8.00
26185;PMS7003;20067;48.764;9.176;2023-05-29T02:28:09;17.75;16.50;7.50
26185;PMS7003;20067;48.764;9.176;2023-05-29T02:30:35;18.75;15.25;8.75
26185;PMS7003;20067;48.764;9.176;2023-05-29T02:33:01;13.00;13.00;7.00
26185;PMS7003;20067;48.764;9.176;2023-05-29T02:35:26;14.00;12.75;6.00
26185;PMS7003;20067;48.764;9.176;2023-05-29T02:37:52;13.50;13.00;8.00
26185;PMS7003;20067;48.764;9.176;2023-05-29T02:40:18;12.00;12.00;7.25
26185;PMS7003;20067;48.764;9.176;2023-05-29T02:42:45;16.00;13.75;8.00
26185;PMS7003;20067;48.764;9.176;2023-05-29T02:45:10;12.25;12.25;6.00
26185;PMS7003;20067;48.764;9.176;2023-05-29T02:47:36;16.25;14.25;8.00
26185;PMS7003;20067;48.764;9.176;2023-05-29T02:50:02;13.00;12.00;6.00
26185;PMS7003;20067;48.764;9.176;2023-05-29T02:52:29;14.50;13.50;7.75
26185;PMS7003;20067;48.764;9.176;2023-05-29T02:54:58;16.25;12.75;8.00
26185;PMS7003;20067;48.764;9.176;2023-05-29T02:57:24;16.25;14.00;5.75
26185;PMS7003;20067;48.764;9.176;2023-05-29T02:59:50;14.00;13.00;8.00
26185;PMS7003;20067;48.764;9.176;2023-05-29T03:02:16;14.00;13.75;8.00
26185;PMS7003;20067;48.764;9.176;2023-05-29T03:04:42;13.75;12.25;6.00
26185;PMS7003;20067;48.764;9.176;2023-05-29T03:07:09;16.75;11.50;5.50
26185;PMS7003;20067;48.764;9.176;2023-05-29T03:09:34;14.00;12.00;6.00
26185;PMS7003;20067;48.764;9.176;2023-05-29T03:12:00;18.00;15.00;7.00
26185;PMS7003;20067;48.764;9.176;2023-05-29T03:14:26;13.00;12.00;6.00
26185;PMS7003;20067;48.764;9.176;2023-05-29T03:16:52;13.50;12.00;6.00
26185;PMS7003;20067;48.764;9.176;2023-05-29T03:19:18;13.25;12.75;7.25
26185;PMS7003;20067;48.764;9.176;2023-05-29T03:21:44;13.00;12.25;6.00
26185;PMS7003;20067;48.764;9.176;2023-05-29T03:24:10;12.25;10.75;6.00
26185;PMS7003;20067;48.764;9.176;2023-05-29T03:26:36;16.00;13.25;8.00
26185;PMS7003;20067;48.764;9.176;2023-05-29T03:29:02;12.00;12.00;8.00
26185;PMS7003;20067;48.764;9.176;2023-05-29T03:31:27;13.75;12.75;6.75
26185;PMS7003;20067;48.764;9.176;2023-05-29T03:33:53;13.25;12.25;6.00
26185;PMS7003;20067;48.764;9.176;2023-05-29T03:36:18;14.50;12.25;6.50
26185;PMS7003;20067;48.764;9.176;2023-05-29T03:38:44;13.25;10.50;6.00
26185;PMS7003;20067;48.764;9.176;2023-05-29T03:41:10;13.25;12.75;6.00
26185;PMS7003;20067;48.764;9.176;2023-05-29T03:43:35;14.50;12.00;6.00
26185;PMS7003;20067;48.764;9.176;2023-05-29T03:46:02;13.00;13.00;6.50
26185;PMS7003;20067;48.764;9.176;2023-05-29T03:48:28;10.25;10.25;6.00
26185;PMS7003;20067;48.764;9.176;2023-05-29T03:50:53;18.75;16.50;8.00
26185;PMS7003;20067;48.764;9.176;2023-05-29T03:53:19;15.75;13.00;8.00
26185;PMS7003;20067;48.764;9.176;2023-05-29T03:55:44;17.50;14.25;9.00
26185;PMS7003;20067;48.764;9.176;2023-05-29T03:58:10;16.00;12.50;8.00
26185;PMS7003;20067;48.764;9.176;2023-05-29T04:00:37;12.75;12.25;7.50
26185;PMS7003;20067;48.764;9.176;2023-05-29T04:03:03;12.50;11.25;7.00
26185;PMS7003;20067;48.764;9.176;2023-05-29T04:05:29;12.25;12.25;7.00
26185;PMS7003;20067;48.764;9.176;2023-05-29T04:07:55;14.00;13.00;6.00
26185;PMS7003;20067;48.764;9.176;2023-05-29T04:10:21;13.00;13.00;8.00
26185;PMS7003;20067;48.764;9.176;2023-05-29T04:12:47;13.50;12.50;6.00
26185;PMS7003;20067;48.764;9.176;2023-05-29T04:15:12;16.00;13.00;6.50
26185;PMS7003;20067;48.764;9.176;2023-05-29T04:17:38;13.00;13.00;8.75
26185;PMS7003;20067;48.764;9.176;2023-05-29T04:20:04;13.50;13.00;8.00
26185;PMS7003;20067;48.764;9.176;2023-05-29T04:22:34;15.75;10.75;6.00
26185;PMS7003;20067;48.764;9.176;2023-05-29T04:25:03;15.75;13.75;8.00
26185;PMS7003;20067;48.764;9.176;2023-05-29T04:27:30;16.75;13.00;6.00
26185;PMS7003;20067;48.764;9.176;2023-05-29T04:29:57;15.75;12.50;6.00
26185;PMS7003;20067;48.764;9.176;2023-05-29T04:32:23;15.50;15.50;8.25
26185;PMS7003;20067;48.764;9.176;2023-05-29T04:34:48;16.75;14.50;8.00
26185;PMS7003;20067;48.764;9.176;2023-05-29T04:37:16;12.75;11.75;6.00
26185;PMS7003;20067;48.764;9.176;2023-05-29T04:39:42;14.25;13.00;8.00
26185;PMS7003;20067;48.764;9.176;2023-05-29T04:42:08;15.50;13.50;8.50
26185;PMS7003;20067;48.764;9.176;2023-05-29T04:44:33;13.00;13.00;8.00
26185;PMS7003;20067;48.764;9.176;2023-05-29T04:49:36;12.50;11.50;6.00
26185;PMS7003;20067;48.764;9.176;2023-05-29T04:52:03;16.75;13.50;8.00
26185;PMS7003;20067;48.764;9.176;2023-05-29T04:54:30;12.25;12.00;6.00
26185;PMS7003;20067;48.764;9.176;2023-05-29T04:56:55;13.50;10.00;6.00
26185;PMS7003;20067;48.764;9.176;2023-05-29T04:59:21;10.25;10.00;6.00
26185;PMS7003;20067;48.764;9.176;2023-05-29T05:01:46;16.00;13.75;7.00
26185;PMS7003;20067;48.764;9.176;2023-05-29T05:04:13;14.00;12.50;6.00
26185;PMS7003;20067;48.764;9.176;2023-05-29T05:06:38;16.50;15.25;8.00
26185;PMS7003;20067;48.764;9.176;2023-05-29T05:09:04;14.50;12.25;6.25
26185;PMS7003;20067;48.764;9.176;2023-05-29T05:11:30;15.25;12.50;6.00
26185;PMS7003;20067;48.764;9.176;2023-05-29T05:13:55;13.25;13.25;7.00
26185;PMS7003;20067;48.764;9.176;2023-05-29T05:16:21;15.25;12.50;8.00
26185;PMS7003;20067;48.764;9.176;2023-05-29T05:18:46;15.75;15.25;8.75
26185;PMS7003;20067;48.764;9.176;2023-05-29T05:21:12;16.00;15.00;8.25
26185;PMS7003;20067;48.764;9.176;2023-05-29T05:23:38;15.00;13.75;8.50
26185;PMS7003;20067;48.764;9.176;2023-05-29T05:26:05;15.25;13.50;7.25
26185;PMS7003;20067;48.764;9.176;2023-05-29T05:28:31;11.75;11.50;5.75
26185;PMS7003;20067;48.764;9.176;2023-05-29T05:30:56;13.50;12.25;8.00
26185;PMS7003;20067;48.764;9.176;2023-05-29T05:33:22;13.00;12.25;6.00
26185;PMS7003;20067;48.764;9.176;2023-05-29T05:35:47;13.00;12.00;6.00
26185;PMS7003;20067;48.764;9.176;2023-05-29T05:38:13;15.00;14.00;7.00
26185;PMS7003;20067;48.764;9.176;2023-05-29T05:40:39;14.75;13.25;7.00
26185;PMS7003;20067;48.764;9.176;2023-05-29T05:43:04;13.25;13.25;6.50
26185;PMS7003;20067;48.764;9.176;2023-05-29T05:45:31;17.25;14.00;8.00
26185;PMS7003;20067;48.764;9.176;2023-05-29T05:47:56;17.00;12.75;6.00
26185;PMS7003;20067;48.764;9.176;2023-05-29T05:50:22;9.50;9.25;4.50
26185;PMS7003;20067;48.764;9.176;2023-05-29T05:52:49;12.00;12.00;7.00
26185;PMS7003;20067;48.764;9.176;2023-05-29T05:55:15;14.00;13.50;7.50
26185;PMS7003;20067;48.764;9.176;2023-05-29T05:57:40;14.50;13.00;6.00
26185;PMS7003;20067;48.764;9.176;2023-05-29T06:00:06;14.25;14.00;7.00
26185;PMS7003;20067;48.764;9.176;2023-05-29T06:02:34;14.75;11.00;7.00
26185;PMS7003;20067;48.764;9.176;2023-05-29T06:05:00;15.75;14.25;7.25
26185;PMS7003;20067;48.764;9.176;2023-05-29T06:07:25;15.00;12.00;7.00
26185;PMS7003;20067;48.764;9.176;2023-05-29T06:09:51;14.75;13.50;7.00
26185;PMS7003;20067;48.764;9.176;2023-05-29T06:12:16;13.00;11.50;5.75
26185;PMS7003;20067;48.764;9.176;2023-05-29T06:14:42;14.75;11.75;6.75
26185;PMS7003;20067;48.764;9.176;2023-05-29T06:17:08;14.50;14.25;8.75
26185;PMS7003;20067;48.764;9.176;2023-05-29T06:19:33;14.00;14.00;7.00
26185;PMS7003;20067;48.764;9.176;2023-05-29T06:21:59;10.50;10.50;5.50
26185;PMS7003;20067;48.764;9.176;2023-05-29T06:24:25;14.50;13.75;7.00
26185;PMS7003;20067;48.764;9.176;2023-05-29T06:26:51;14.50;13.50;6.00
26185;PMS7003;20067;48.764;9.176;2023-05-29T06:29:17;13.50;13.50;7.00
26185;PMS7003;20067;48.764;9.176;2023-05-29T06:31:42;14.00;13.25;7.00
26185;PMS7003;20067;48.764;9.176;2023-05-29T06:34:08;14.50;13.50;7.00
26185;PMS7003;20067;48.764;9.176;2023-05-29T06:36:33;15.25;14.00;8.75
26185;PMS7003;20067;48.764;9.176;2023-05-29T06:38:59;17.00;13.75;8.00
26185;PMS7003;20067;48.764;9.176;2023-05-29T06:41:25;13.00;13.00;7.00
26185;PMS7003;20067;48.764;9.176;2023-05-29T06:43:51;18.50;15.00;9.00
26185;PMS7003;20067;48.764;9.176;2023-05-29T06:46:16;14.25;14.25;8.00
26185;PMS7003;20067;48.764;9.176;2023-05-29T06:48:42;14.50;14.00;8.75
26185;PMS7003;20067;48.764;9.176;2023-05-29T06:51:08;13.25;13.00;7.00
26185;PMS7003;20067;48.764;9.176;2023-05-29T06:53:37;14.00;13.00;6.25
26185;PMS7003;20067;48.764;9.176;2023-05-29T06:56:04;14.25;14.00;9.00
26185;PMS7003;20067;48.764;9.176;2023-05-29T06:58:30;15.75;14.00;7.00
26185;PMS7003;20067;48.764;9.176;2023-05-29T07:00:57;12.50;12.50;7.25
26185;PMS7003;20067;48.764;9.176;2023-05-29T07:03:24;11.00;11.00;6.00
26185;PMS7003;20067;48.764;9.176;2023-05-29T07:05:50;13.00;11.75;7.50
26185;PMS7003;20067;48.764;9.176;2023-05-29T07:08:16;14.00;13.25;7.25
26185;PMS7003;20067;48.764;9.176;2023-05-29T07:10:42;15.25;12.50;6.50
26185;PMS7003;20067;48.764;9.176;2023-05-29T07:13:07;12.50;12.50;7.00
26185;PMS7003;20067;48.764;9.176;2023-05-29T07:15:40;11.75;11.25;6.00
26185;PMS7003;20067;48.764;9.176;2023-05-29T07:18:05;15.00;15.00;7.75
26185;PMS7003;20067;48.764;9.176;2023-05-29T07:20:31;15.50;13.50;6.25
26185;PMS7003;20067;48.764;9.176;2023-05-29T07:22:56;15.00;14.25;8.00
26185;PMS7003;20067;48.764;9.176;2023-05-29T07:25:22;12.25;12.00;7.75
26185;PMS7003;20067;48.764;9.176;2023-05-29T07:27:48;16.25;14.50;8.00
26185;PMS7003;20067;48.764;9.176;2023-05-29T07:30:13;15.25;14.25;8.75
26185;PMS7003;20067;48.764;9.176;2023-05-29T07:32:39;16.25;14.50;8.75
26185;PMS7003;20067;48.764;9.176;2023-05-29T07:35:05;15.00;13.75;8.00
26185;PMS7003;20067;48.764;9.176;2023-05-29T07:37:31;16.50;15.00;8.00
26185;PMS7003;20067;48.764;9.176;2023-05-29T07:39:57;14.50;14.00;7.00
26185;PMS7003;20067;48.764;9.176;2023-05-29T07:42:22;12.00;12.00;7.25
26185;PMS7003;20067;48.764;9.176;2023-05-29T07:44:48;16.00;13.50;8.00
26185;PMS7003;20067;48.764;9.176;2023-05-29T07:47:17;13.00;13.00;8.00
26185;PMS7003;20067;48.764;9.176;2023-05-29T07:49:49;16.75;15.75;8.25
26185;PMS7003;20067;48.764;9.176;2023-05-29T07:52:17;13.25;13.00;7.75
26185;PMS7003;20067;48.764;9.176;2023-05-29T07:54:43;11.75;11.50;6.50
26185;PMS7003;20067;48.764;9.176;2023-05-29T07:57:09;17.25;16.00;8.75
26185;PMS7003;20067;48.764;9.176;2023-05-29T07:59:40;14.25;14.00;8.00
26185;PMS7003;20067;48.764;9.176;2023-05-29T08:02:06;15.00;13.00;8.00
26185;PMS7003;20067;48.764;9.176;2023-05-29T08:04:32;18.00;12.00;7.00
26185;PMS7003;20067;48.764;9.176;2023-05-29T08:06:59;19.00;14.75;8.50
26185;PMS7003;20067;48.764;9.176;2023-05-29T08:09:26;14.75;12.75;7.00
26185;PMS7003;20067;48.764;9.176;2023-05-29T08:11:51;14.50;13.50;8.25
26185;PMS7003;20067;48.764;9.176;2023-05-29T08:14:17;12.50;10.75;7.00
26185;PMS7003;20067;48.764;9.176;2023-05-29T08:16:43;31.50;26.25;14.75
26185;PMS7003;20067;48.764;9.176;2023-05-29T08:19:08;13.75;13.00;6.00
26185;PMS7003;20067;48.764;9.176;2023-05-29T08:21:34;31.25;24.50;16.00
26185;PMS7003;20067;48.764;9.176;2023-05-29T08:24:01;25.25;21.00;10.75
26185;PMS7003;20067;48.764;9.176;2023-05-29T08:26:29;12.00;11.00;5.50
26185;PMS7003;20067;48.764;9.176;2023-05-29T08:28:55;17.50;16.00;10.25
26185;PMS7003;20067;48.764;9.176;2023-05-29T08:31:21;12.00;10.50;5.25
26185;PMS7003;20067;48.764;9.176;2023-05-29T08:33:49;16.00;15.00;8.00
26185;PMS7003;20067;48.764;9.176;2023-05-29T08:36:15;13.25;11.25;6.00
26185;PMS7003;20067;48.764;9.176;2023-05-29T08:38:42;16.00;13.25;8.50
26185;PMS7003;20067;48.764;9.176;2023-05-29T08:41:08;17.25;14.75;8.25
26185;PMS7003;20067;48.764;9.176;2023-05-29T08:43:38;15.75;13.25;8.00
26185;PMS7003;20067;48.764;9.176;2023-05-29T08:46:07;14.75;12.25;6.00
26185;PMS7003;20067;48.764;9.176;2023-05-29T08:48:33;16.00;12.75;8.25
26185;PMS7003;20067;48.764;9.176;2023-05-29T08:51:03;13.50;13.50;8.00
26185;PMS7003;20067;48.764;9.176;2023-05-29T08:53:30;14.75;11.50;7.25
26185;PMS7003;20067;48.764;9.176;2023-05-29T08:55:57;16.00;14.00;8.00
26185;PMS7003;20067;48.764;9.176;2023-05-29T08:58:23;12.75;12.00;6.50
26185;PMS7003;20067;48.764;9.176;2023-05-29T09:00:51;16.50;15.25;8.00
26185;PMS7003;20067;48.764;9.176;2023-05-29T09:03:16;14.00;12.50;7.75
26185;PMS7003;20067;48.764;9.176;2023-05-29T09:05:42;12.25;11.50;6.00
26185;PMS7003;20067;48.764;9.176;2023-05-29T09:08:10;12.75;12.00;8.00
26185;PMS7003;20067;48.764;9.176;2023-05-29T09:10:43;14.75;12.75;8.00
26185;PMS7003;20067;48.764;9.176;2023-05-29T09:13:13;11.75;11.25;6.50
26185;PMS7003;20067;48.764;9.176;2023-05-29T09:15:39;13.75;12.00;7.50
26185;PMS7003;20067;48.764;9.176;2023-05-29T09:18:07;12.50;12.50;7.00
26185;PMS7003;20067;48.764;9.176;2023-05-29T09:20:34;14.50;13.50;7.00
26185;PMS7003;20067;48.764;9.176;2023-05-29T09:23:01;12.75;12.75;9.00
26185;PMS7003;20067;48.764;9.176;2023-05-29T09:25:32;13.25;11.75;7.00
26185;PMS7003;20067;48.764;9.176;2023-05-29T09:28:00;14.25;14.25;8.00
26185;PMS7003;20067;48.764;9.176;2023-05-29T09:33:05;15.25;14.00;8.25
26185;PMS7003;20067;48.764;9.176;2023-05-29T09:35:41;12.50;12.50;6.75
26185;PMS7003;20067;48.764;9.176;2023-05-29T09:38:08;13.00;12.50;7.00
26185;PMS7003;20067;48.764;9.176;2023-05-29T09:40:37;13.75;13.50;7.75
26185;PMS7003;20067;48.764;9.176;2023-05-29T09:45:37;13.50;12.00;6.00
26185;PMS7003;20067;48.764;9.176;2023-05-29T09:48:04;14.00;14.00;7.00
26185;PMS7003;20067;48.764;9.176;2023-05-29T09:50:31;11.50;11.50;6.00
26185;PMS7003;20067;48.764;9.176;2023-05-29T09:52:58;11.75;11.75;7.00
26185;PMS7003;20067;48.764;9.176;2023-05-29T09:55:26;15.00;12.75;6.75
26185;PMS7003;20067;48.764;9.176;2023-05-29T09:57:53;14.00;13.50;7.00
26185;PMS7003;20067;48.764;9.176;2023-05-29T10:00:20;14.50;13.50;6.00
26185;PMS7003;20067;48.764;9.176;2023-05-29T10:02:47;15.75;13.00;7.50
26185;PMS7003;20067;48.764;9.176;2023-05-29T10:05:13;14.00;13.00;7.00
26185;PMS7003;20067;48.764;9.176;2023-05-29T10:07:43;15.25;11.75;6.25
26185;PMS7003;20067;48.764;9.176;2023-05-29T10:10:13;14.00;14.00;8.25
26185;PMS7003;20067;48.764;9.176;2023-05-29T10:12:44;13.00;12.75;6.25
26185;PMS7003;20067;48.764;9.176;2023-05-29T10:15:16;12.25;12.25;7.00
26185;PMS7003;20067;48.764;9.176;2023-05-29T10:17:50;11.75;11.75;6.00
26185;PMS7003;20067;48.764;9.176;2023-05-29T10:20:31;12.75;12.75;7.00
26185;PMS7003;20067;48.764;9.176;2023-05-29T10:23:03;13.75;12.50;6.75
26185;PMS7003;20067;48.764;9.176;2023-05-29T10:25:29;14.50;12.50;7.00
26185;PMS7003;20067;48.764;9.176;2023-05-29T10:27:57;12.50;12.00;6.00
26185;PMS7003;20067;48.764;9.176;2023-05-29T10:30:27;12.25;9.50;5.00
26185;PMS7003;20067;48.764;9.176;2023-05-29T10:35:45;13.75;11.00;7.00
26185;PMS7003;20067;48.764;9.176;2023-05-29T10:38:31;14.00;12.25;8.75
26185;PMS7003;20067;48.764;9.176;2023-05-29T10:41:15;10.50;10.50;6.50
26185;PMS7003;20067;48.764;9.176;2023-05-29T10:44:01;11.50;10.00;6.00
26185;PMS7003;20067;48.764;9.176;2023-05-29T10:52:02;10.25;10.25;6.00
26185;PMS7003;20067;48.764;9.176;2023-05-29T10:54:30;14.25;10.75;5.25
26185;PMS7003;20067;48.764;9.176;2023-05-29T10:57:05;12.25;10.50;5.50
26185;PMS7003;20067;48.764;9.176;2023-05-29T10:59:37;11.25;9.75;5.00
26185;PMS7003;20067;48.764;9.176;2023-05-29T11:02:03;10.00;9.50;5.50
26185;PMS7003;20067;48.764;9.176;2023-05-29T11:04:33;9.00;9.00;5.00
26185;PMS7003;20067;48.764;9.176;2023-05-29T11:06:59;9.75;9.75;5.75
26185;PMS7003;20067;48.764;9.176;2023-05-29T11:15:21;11.00;10.00;5.75
26185;PMS7003;20067;48.764;9.176;2023-05-29T11:17:47;11.00;10.00;6.00
26185;PMS7003;20067;48.764;9.176;2023-05-29T11:25:42;10.25;10.00;5.00
26185;PMS7003;20067;48.764;9.176;2023-05-29T11:28:09;11.00;10.50;6.00
26185;PMS7003;20067;48.764;9.176;2023-05-29T11:30:43;11.00;10.00;6.00
26185;PMS7003;20067;48.764;9.176;2023-05-29T11:33:30;11.25;10.25;6.75
26185;PMS7003;20067;48.764;9.176;2023-05-29T11:35:58;10.00;10.00;6.00
26185;PMS7003;20067;48.764;9.176;2023-05-29T11:38:25;12.75;10.00;5.75
26185;PMS7003;20067;48.764;9.176;2023-05-29T11:40:53;11.50;9.75;6.00
26185;PMS7003;20067;48.764;9.176;2023-05-29T11:43:20;10.75;9.50;5.50
26185;PMS7003;20067;48.764;9.176;2023-05-29T11:45:46;9.00;9.00;5.00
26185;PMS7003;20067;48.764;9.176;2023-05-29T11:48:11;9.75;8.25;4.75
26185;PMS7003;20067;48.764;9.176;2023-05-29T11:50:37;9.25;9.00;4.50
26185;PMS7003;20067;48.764;9.176;2023-05-29T11:53:05;9.50;9.00;4.75
26185;PMS7003;20067;48.764;9.176;2023-05-29T11:55:32;9.00;8.00;4.75
26185;PMS7003;20067;48.764;9.176;2023-05-29T11:58:01;9.50;8.75;5.00
26185;PMS7003;20067;48.764;9.176;2023-05-29T12:00:36;9.50;9.50;5.75
26185;PMS7003;20067;48.764;9.176;2023-05-29T12:03:06;11.00;9.50;6.00
26185;PMS7003;20067;48.764;9.176;2023-05-29T12:08:11;9.25;9.25;5.00
26185;PMS7003;20067;48.764;9.176;2023-05-29T12:10:36;11.00;10.00;5.00
26185;PMS7003;20067;48.764;9.176;2023-05-29T12:13:02;7.50;7.50;4.00
26185;PMS7003;20067;48.764;9.176;2023-05-29T12:15:28;9.00;8.50;4.00
26185;PMS7003;20067;48.764;9.176;2023-05-29T12:17:54;10.75;8.50;4.00
26185;PMS7003;20067;48.764;9.176;2023-05-29T12:20:23;7.25;7.25;3.50
26185;PMS7003;20067;48.764;9.176;2023-05-29T12:22:53;8.25;7.75;4.25
26185;PMS7003;20067;48.764;9.176;2023-05-29T12:25:26;9.75;8.75;5.25
26185;PMS7003;20067;48.764;9.176;2023-05-29T12:27:52;8.00;7.50;3.00
26185;PMS7003;20067;48.764;9.176;2023-05-29T12:30:21;11.00;10.25;5.75
26185;PMS7003;20067;48.764;9.176;2023-05-29T12:32:51;6.75;6.75;4.00
26185;PMS7003;20067;48.764;9.176;2023-05-29T12:35:18;8.50;7.75;4.00
26185;PMS7003;20067;48.764;9.176;2023-05-29T12:37:45;9.00;8.00;3.25
26185;PMS7003;20067;48.764;9.176;2023-05-29T12:40:25;10.75;8.00;4.25
26185;PMS7003;20067;48.764;9.176;2023-05-29T12:42:55;8.25;8.25;4.00
26185;PMS7003;20067;48.764;9.176;2023-05-29T12:45:22;9.00;9.00;6.00
26185;PMS7003;20067;48.764;9.176;2023-05-29T12:47:59;8.75;8.75;5.00
26185;PMS7003;20067;48.764;9.176;2023-05-29T12:50:29;10.25;9.00;4.00
26185;PMS7003;20067;48.764;9.176;2023-05-29T12:53:05;8.50;7.75;4.00
26185;PMS7003;20067;48.764;9.176;2023-05-29T12:55:36;8.00;7.75;3.75
26185;PMS7003;20067;48.764;9.176;2023-05-29T12:58:06;7.25;7.00;4.00
26185;PMS7003;20067;48.764;9.176;2023-05-29T13:00:37;9.00;8.00;4.50
26185;PMS7003;20067;48.764;9.176;2023-05-29T13:03:05;9.00;9.00;4.50
26185;PMS7003;20067;48.764;9.176;2023-05-29T13:05:31;7.75;7.75;4.00
26185;PMS7003;20067;48.764;9.176;2023-05-29T13:07:57;10.50;10.50;6.50
26185;PMS7003;20067;48.764;9.176;2023-05-29T13:10:23;11.25;9.50;5.75
26185;PMS7003;20067;48.764;9.176;2023-05-29T13:12:49;10.25;9.25;5.50
26185;PMS7003;20067;48.764;9.176;2023-05-29T13:15:18;8.25;8.25;5.00
26185;PMS7003;20067;48.764;9.176;2023-05-29T13:17:44;10.00;9.25;5.75
26185;PMS7003;20067;48.764;9.176;2023-05-29T13:20:11;10.75;10.00;6.00
26185;PMS7003;20067;48.764;9.176;2023-05-29T13:22:38;8.50;8.25;4.25
26185;PMS7003;20067;48.764;9.176;2023-05-29T13:25:05;7.00;5.50;3.00
26185;PMS7003;20067;48.764;9.176;2023-05-29T13:27:31;9.00;8.50;5.00
26185;PMS7003;20067;48.764;9.176;2023-05-29T13:30:01;9.00;8.50;4.25
26185;PMS7003;20067;48.764;9.176;2023-05-29T13:32:28;8.50;8.00;5.00
26185;PMS7003;20067;48.764;9.176;2023-05-29T13:34:54;8.75;8.00;5.00
26185;PMS7003;20067;48.764;9.176;2023-05-29T13:37:20;11.25;9.25;5.00
26185;PMS7003;20067;48.764;9.176;2023-05-29T13:39:46;10.25;8.75;4.00
26185;PMS7003;20067;48.764;9.176;2023-05-29T13:42:12;9.50;8.00;4.25
26185;PMS7003;20067;48.764;9.176;2023-05-29T13:44:37;10.75;9.00;5.00
26185;PMS7003;20067;48.764;9.176;2023-05-29T13:47:04;9.25;8.50;4.25
26185;PMS7003;20067;48.764;9.176;2023-05-29T13:49:31;11.00;9.75;5.00
26185;PMS7003;20067;48.764;9.176;2023-05-29T13:51:56;10.00;9.00;4.50
26185;PMS7003;20067;48.764;9.176;2023-05-29T13:54:22;8.50;7.00;4.00
26185;PMS7003;20067;48.764;9.176;2023-05-29T13:56:48;11.25;10.00;5.00
26185;PMS7003;20067;48.764;9.176;2023-05-29T13:59:14;6.00;6.00;3.50
26185;PMS7003;20067;48.764;9.176;2023-05-29T14:01:40;10.25;8.75;5.00
26185;PMS7003;20067;48.764;9.176;2023-05-29T14:04:06;8.50;8.50;5.00
26185;PMS7003;20067;48.764;9.176;2023-05-29T14:06:32;8.25;8.00;4.50
26185;PMS7003;20067;48.764;9.176;2023-05-29T14:08:58;10.00;10.00;4.00
26185;PMS7003;20067;48.764;9.176;2023-05-29T14:11:24;9.50;8.00;4.25
26185;PMS7003;20067;48.764;9.176;2023-05-29T14:13:50;8.50;8.25;4.25
26185;PMS7003;20067;48.764;9.176;2023-05-29T14:16:15;9.25;8.00;5.00
26185;PMS7003;20067;48.764;9.176;2023-05-29T14:18:41;8.25;8.00;4.25
26185;PMS7003;20067;48.764;9.176;2023-05-29T14:21:07;7.25;7.00;4.00
26185;PMS7003;20067;48.764;9.176;2023-05-29T14:23:33;8.00;8.00;4.25
26185;PMS7003;20067;48.764;9.176;2023-05-29T14:26:02;8.75;7.75;4.25
26185;PMS7003;20067;48.764;9.176;2023-05-29T14:28:27;10.00;8.50;4.00
26185;PMS7003;20067;48.764;9.176;2023-05-29T14:30:53;8.50;7.75;3.75
26185;PMS7003;20067;48.764;9.176;2023-05-29T14:33:19;9.25;7.50;3.50
26185;PMS7003;20067;48.764;9.176;2023-05-29T14:35:44;9.25;7.75;4.50
26185;PMS7003;20067;48.764;9.176;2023-05-29T14:38:10;8.00;8.00;4.50
26185;PMS7003;20067;48.764;9.176;2023-05-29T14:40:36;10.25;8.50;5.00
26185;PMS7003;20067;48.764;9.176;2023-05-29T14:43:02;10.00;9.00;6.00
26185;PMS7003;20067;48.764;9.176;2023-05-29T14:45:28;11.50;11.00;6.00